createdAt,value
2023-05-13T00:59:57.126Z,60.03
2023-05-13T02:20:34.201Z,61.44
2023-05-13T02:24:03.507Z,60.95
2023-05-13T13:17:10.150Z,82.67
2023-05-13T13:35:45.623Z,87.68
2023-05-13T13:42:58.551Z,90.54
2023-05-13T13:46:03.164Z,91.10
2023-05-13T13:48:53.142Z,91.35
2023-05-13T13:51:58.404Z,91.92
2023-05-13T14:10:28.853Z,94.58
2023-05-13T14:12:59.562Z,93.94
2023-05-13T14:15:50.463Z,93.71
2023-05-13T14:18:19.105Z,93.77
2023-05-13T14:20:51.068Z,93.63
2023-05-13T14:23:20.033Z,93.88
2023-05-13T14:26:01.495Z,94.46
2023-05-13T14:28:29.355Z,95.25
2023-05-13T14:31:00.431Z,94.74
2023-05-13T14:33:31.308Z,94.81
2023-05-13T14:36:00.125Z,94.69
2023-05-13T14:38:32.253Z,94.67
2023-05-13T14:41:00.776Z,94.09
2023-05-13T14:43:29.089Z,94.88
2023-05-13T14:46:00.354Z,95.12
2023-05-13T14:48:28.963Z,95.56
2023-05-13T14:50:59.982Z,96.58
2023-05-13T14:53:31.495Z,97.41
2023-05-13T14:56:00.044Z,96.59
2023-05-13T14:58:28.732Z,96.72
2023-05-13T15:00:59.676Z,97.01
2023-05-13T15:03:28.046Z,96.49
2023-05-13T15:06:02.458Z,96.41
2023-05-13T15:08:31.095Z,96.52
2023-05-13T15:11:01.974Z,97.44
2023-05-13T15:13:36.831Z,97.14
2023-05-13T15:16:05.532Z,96.54
2023-05-13T15:19:03.778Z,96.18
2023-05-13T15:27:04.459Z,96.08
2023-05-13T15:29:33.446Z,95.74
2023-05-13T15:35:02.199Z,97.29
2023-05-13T15:37:31.513Z,96.70
2023-05-13T15:40:25.596Z,96.87
2023-05-13T15:50:06.956Z,97.65
2023-05-13T15:58:05.740Z,98.41
2023-05-13T16:09:48.008Z,97.48
2023-05-13T16:13:09.528Z,97.26
2023-05-13T16:55:15.167Z,82.76
2023-05-13T17:04:50.009Z,84.66
2023-05-13T17:24:05.529Z,80.91
2023-05-13T17:26:49.874Z,81.29
2023-05-13T17:32:37.210Z,84.75
2023-05-13T17:35:40.923Z,82.77
2023-05-13T17:45:09.497Z,84.22
2023-05-13T17:50:42.561Z,82.83
2023-05-13T17:59:52.786Z,83.68
2023-05-13T18:03:37.282Z,85.63
2023-05-13T18:19:14.028Z,82.26
2023-05-13T18:24:14.156Z,81.35
2023-05-13T18:27:07.815Z,79.49
2023-05-13T18:29:39.180Z,77.35
2023-05-13T18:32:09.350Z,79.42
2023-05-13T18:37:14.082Z,78.91
2023-05-13T18:39:50.398Z,78.40
2023-05-13T18:45:41.560Z,77.47
2023-05-13T18:48:13.858Z,74.30
2023-05-13T18:50:42.530Z,73.62
2023-05-13T18:56:12.894Z,74.03
2023-05-13T18:58:41.628Z,73.33
2023-05-13T19:01:10.476Z,72.13
2023-05-13T19:03:41.948Z,73.95
2023-05-13T19:06:43.854Z,74.31
2023-05-13T19:13:20.886Z,73.98
2023-05-13T19:24:18.153Z,67.57
2023-05-13T19:26:49.636Z,70.28
2023-05-13T19:30:44.665Z,68.65
2023-05-13T19:33:48.014Z,69.14
2023-05-13T19:36:48.510Z,70.11
2023-05-13T19:48:43.136Z,68.50
2023-05-13T19:51:45.334Z,68.24
2023-05-13T19:54:47.436Z,67.83
2023-05-13T19:57:22.197Z,67.52
2023-05-13T20:08:20.671Z,68.31
2023-05-13T20:17:45.950Z,67.24
2023-05-13T20:20:45.776Z,67.23
2023-05-13T20:32:48.939Z,65.18
2023-05-13T20:38:45.489Z,65.05
2023-05-13T20:41:17.006Z,65.16
2023-05-13T20:43:52.706Z,64.74
2023-05-13T20:46:24.148Z,64.09
2023-05-13T20:54:50.953Z,65.62
2023-05-13T20:57:49.675Z,65.18
2023-05-13T21:04:48.636Z,65.44
2023-05-13T21:07:47.052Z,66.09
2023-05-13T21:10:50.115Z,65.81
2023-05-13T21:14:17.117Z,65.30
2023-05-13T21:22:52.888Z,67.32
2023-05-13T21:25:23.610Z,66.16
2023-05-13T21:31:48.255Z,65.08
2023-05-13T21:34:56.210Z,65.57
2023-05-13T21:37:26.492Z,64.16
2023-05-13T21:39:54.881Z,63.97
2023-05-13T21:42:23.924Z,63.41
2023-05-13T21:44:52.262Z,63.12
2023-05-13T21:47:23.410Z,63.02
2023-05-13T21:49:51.652Z,62.53
2023-05-13T21:52:53.298Z,60.83
2023-05-13T21:55:21.738Z,60.08
2023-05-13T21:57:50.700Z,60.11
2023-05-13T22:00:22.620Z,60.55
2023-05-13T22:02:52.362Z,60.35
2023-05-13T22:05:22.149Z,60.49
2023-05-13T22:07:53.502Z,61.42
2023-05-13T22:10:22.043Z,61.98
2023-05-13T22:12:53.447Z,62.03
2023-05-13T22:15:28.561Z,62.61
2023-05-13T22:17:57.109Z,63.07
2023-05-13T22:20:25.842Z,63.32
2023-05-13T22:22:54.291Z,64.10
2023-05-13T22:25:24.535Z,63.11
2023-05-13T22:27:53.221Z,63.08
2023-05-13T22:30:53.836Z,62.95
2023-05-13T22:33:24.990Z,62.97
2023-05-13T22:35:53.938Z,62.90
2023-05-13T22:38:27.969Z,64.02
2023-05-13T22:40:57.084Z,62.93
2023-05-13T22:43:30.320Z,62.06
2023-05-13T22:45:59.201Z,61.45
2023-05-13T22:48:27.760Z,61.26
2023-05-13T22:50:57.932Z,60.92
2023-05-13T22:53:31.648Z,60.67
2023-05-13T23:01:26.056Z,59.68
2023-05-13T23:03:55.891Z,59.85
2023-05-13T23:06:28.287Z,59.29
2023-05-13T23:08:56.651Z,59.04
2023-05-13T23:11:34.165Z,59.17
2023-05-13T23:14:34.523Z,58.83
2023-05-13T23:17:28.080Z,58.99
2023-05-13T23:19:57.442Z,58.63
2023-05-13T23:22:26.983Z,58.84
2023-05-13T23:24:59.322Z,59.00
2023-05-13T23:27:32.343Z,58.81
2023-05-13T23:30:02.019Z,59.37
2023-05-13T23:32:31.226Z,59.86
2023-05-13T23:35:00.030Z,60.28
2023-05-13T23:37:33.633Z,60.37
2023-05-13T23:43:29.570Z,60.76
2023-05-13T23:46:00.784Z,60.32
2023-05-13T23:48:32.778Z,60.59
2023-05-13T23:51:01.109Z,60.76
2023-05-13T23:53:29.765Z,60.46
2023-05-13T23:55:58.412Z,60.74
2023-05-13T23:58:31.952Z,61.08
